Time;durP1;ratioP1;P1;durP2;ratioP2;P2;SDS_P1;SDS_P2;PMS_P1;PMS_P2;Temp;Humidity;BMP_temperature;BMP_pressure;BME280_temperature;BME280_humidity;BME280_pressure;Samples;Min_cycle;Max_cycle;Signal;HPM_P1;HPM_P2
2023/05/22 00:01:06;;;;;;;64.00;51.55;;;15.90;83.90;;;;;;4940436;28;85322;-55
2023/05/22 00:03:32;;;;;;;68.07;52.08;;;16.00;83.70;;;;;;4939067;28;85149;-61
2023/05/22 00:05:59;;;;;;;65.22;52.05;;;15.90;82.10;;;;;;4942983;28;86039;-62
2023/05/22 00:08:27;;;;;;;66.10;52.33;;;15.80;82.70;;;;;;4937386;28;85324;-47
2023/05/22 00:10:53;;;;;;;63.50;52.22;;;15.80;82.70;;;;;;4943106;28;85967;-46
2023/05/22 00:13:19;;;;;;;62.90;52.05;;;15.80;83.00;;;;;;4944240;28;86200;-46
2023/05/22 00:15:45;;;;;;;64.43;52.03;;;15.80;84.40;;;;;;4941021;28;85841;-47
2023/05/22 00:18:12;;;;;;;64.85;52.63;;;15.80;84.20;;;;;;4945211;28;85132;-45
2023/05/22 00:20:39;;;;;;;66.90;52.95;;;15.80;83.80;;;;;;4941559;28;85745;-45
2023/05/22 00:23:09;;;;;;;66.18;52.88;;;15.80;83.00;;;;;;4940950;28;85296;-48
2023/05/22 00:25:35;;;;;;;67.68;52.95;;;15.80;83.30;;;;;;4939573;28;86771;-46
2023/05/22 00:28:00;;;;;;;66.40;53.80;;;15.80;83.50;;;;;;4940077;28;85777;-48
2023/05/22 00:30:26;;;;;;;67.50;53.65;;;15.80;82.50;;;;;;4941914;28;85125;-47
2023/05/22 00:32:52;;;;;;;67.93;53.45;;;15.80;83.40;;;;;;4943950;28;85085;-46
2023/05/22 00:35:17;;;;;;;66.88;54.65;;;15.80;83.70;;;;;;4943674;28;86571;-45
2023/05/22 00:37:44;;;;;;;66.88;53.53;;;15.70;82.50;;;;;;4946108;28;86932;-46
2023/05/22 00:40:11;;;;;;;70.30;54.30;;;15.70;84.70;;;;;;4944216;28;86041;-45
2023/05/22 00:42:37;;;;;;;67.38;53.88;;;15.70;83.30;;;;;;4943933;28;86017;-46
2023/05/22 00:45:05;;;;;;;64.22;53.22;;;15.80;84.20;;;;;;4942195;28;86957;-51
2023/05/22 00:47:31;;;;;;;71.88;54.05;;;15.70;84.00;;;;;;4945005;28;87131;-50
2023/05/22 00:49:57;;;;;;;68.40;54.53;;;15.80;83.00;;;;;;4948578;28;85902;-46
2023/05/22 00:52:24;;;;;;;68.28;54.28;;;15.70;83.60;;;;;;4944116;28;85317;-53
2023/05/22 00:54:52;;;;;;;69.78;54.78;;;15.70;83.20;;;;;;4944676;28;86290;-47
2023/05/22 00:57:19;;;;;;;69.32;54.58;;;15.70;83.20;;;;;;4945090;28;85728;-48
2023/05/22 00:59:45;;;;;;;71.60;55.85;;;15.60;82.60;;;;;;4943488;28;86299;-46
2023/05/22 01:02:12;;;;;;;68.32;55.33;;;15.60;83.70;;;;;;4941930;28;85503;-48
2023/05/22 01:04:38;;;;;;;69.85;55.53;;;15.70;83.90;;;;;;4947793;28;85684;-47
2023/05/22 01:07:04;;;;;;;70.85;55.15;;;15.60;84.50;;;;;;4942764;28;85514;-51
2023/05/22 01:09:30;;;;;;;77.65;56.63;;;15.60;83.60;;;;;;4944461;28;85424;-48
2023/05/22 01:12:05;;;;;;;71.47;57.40;;;15.60;83.50;;;;;;4945501;28;85577;-44
2023/05/22 01:14:52;;;;;;;70.20;55.88;;;15.60;83.60;;;;;;4944599;28;88241;-48
2023/05/22 01:17:51;;;;;;;65.50;54.85;;;15.60;83.60;;;;;;4944691;28;86212;-49
2023/05/22 01:20:32;;;;;;;69.20;55.53;;;15.60;84.70;;;;;;4941246;28;85943;-54
2023/05/22 01:23:16;;;;;;;70.50;56.67;;;15.60;83.90;;;;;;4948743;28;85580;-47
2023/05/22 01:25:41;;;;;;;71.35;56.22;;;15.60;84.40;;;;;;4944616;28;88507;-47
2023/05/22 01:28:28;;;;;;;72.82;56.78;;;15.60;84.00;;;;;;4943960;28;85972;-49
2023/05/22 01:31:00;;;;;;;73.03;57.95;;;15.60;83.80;;;;;;4943558;28;86610;-45
2023/05/22 01:33:30;;;;;;;72.47;58.30;;;15.60;83.50;;;;;;4961165;28;85757;-49
2023/05/22 01:35:58;;;;;;;73.03;57.50;;;15.60;84.20;;;;;;4975094;28;85478;-46
2023/05/22 01:38:25;;;;;;;72.40;57.22;;;15.50;83.20;;;;;;4944563;28;85561;-47
2023/05/22 01:40:51;;;;;;;73.55;56.97;;;15.50;84.80;;;;;;4945458;28;85531;-47
2023/05/22 01:43:18;;;;;;;75.50;60.20;;;15.50;83.10;;;;;;4946718;28;85493;-45
2023/05/22 01:45:43;;;;;;;78.55;61.80;;;15.50;83.50;;;;;;4944505;28;85344;-46
2023/05/22 01:48:11;;;;;;;78.57;59.88;;;15.50;83.70;;;;;;4941448;28;86016;-49
2023/05/22 01:50:38;;;;;;;75.50;58.20;;;15.50;84.10;;;;;;4945219;28;85294;-44
2023/05/22 01:53:21;;;;;;;74.82;60.47;;;15.50;84.40;;;;;;4946293;28;85293;-47
2023/05/22 01:55:56;;;;;;;78.35;59.17;;;15.50;84.20;;;;;;4946356;28;85916;-47
2023/05/22 01:59:13;;;;;;;72.63;57.28;;;15.50;83.90;;;;;;4943341;28;86251;-48
2023/05/22 02:01:41;;;;;;;71.78;58.35;;;15.50;84.00;;;;;;4940629;28;85748;-50
2023/05/22 02:04:10;;;;;;;76.00;60.15;;;15.40;84.20;;;;;;4946980;28;85636;-46
2023/05/22 02:06:37;;;;;;;74.63;59.05;;;15.40;84.70;;;;;;4944822;28;85381;-49
2023/05/22 02:09:04;;;;;;;74.70;58.80;;;15.50;84.20;;;;;;4940302;28;86316;-50
2023/05/22 02:11:32;;;;;;;74.53;58.28;;;15.50;83.80;;;;;;4946457;28;85428;-46
2023/05/22 02:13:58;;;;;;;74.40;59.70;;;15.50;84.10;;;;;;4946334;28;85470;-47
2023/05/22 02:16:24;;;;;;;80.05;61.67;;;15.40;84.10;;;;;;4944481;28;85752;-48
2023/05/22 02:18:50;;;;;;;73.80;57.72;;;15.40;84.20;;;;;;4943474;28;86360;-46
2023/05/22 02:21:15;;;;;;;80.90;61.72;;;15.50;85.40;;;;;;4941542;28;85291;-45
2023/05/22 02:23:41;;;;;;;80.18;62.83;;;15.40;84.20;;;;;;4944264;28;85632;-50
2023/05/22 02:26:07;;;;;;;80.97;60.30;;;15.40;83.50;;;;;;4941175;28;86773;-51
2023/05/22 02:28:32;;;;;;;78.63;60.50;;;15.40;85.00;;;;;;4943782;28;85457;-62
2023/05/22 02:30:58;;;;;;;76.40;62.33;;;15.40;84.30;;;;;;4946467;28;86519;-64
2023/05/22 02:33:24;;;;;;;80.28;61.28;;;15.40;83.90;;;;;;4946008;28;85110;-57
2023/05/22 02:35:49;;;;;;;78.57;60.78;;;15.40;84.10;;;;;;4941989;28;85311;-61
2023/05/22 02:38:15;;;;;;;79.10;61.13;;;15.40;84.60;;;;;;4938124;28;85748;-61
2023/05/22 02:40:41;;;;;;;78.60;61.05;;;15.40;85.20;;;;;;4947114;28;85601;-58
2023/05/22 02:43:06;;;;;;;75.55;60.38;;;15.40;84.40;;;;;;4944142;28;85012;-58
2023/05/22 02:45:32;;;;;;;79.50;60.65;;;15.40;85.30;;;;;;4947518;28;84927;-63
2023/05/22 02:48:00;;;;;;;76.63;58.80;;;15.40;84.60;;;;;;4946796;28;87459;-65
2023/05/22 02:50:26;;;;;;;75.18;59.97;;;15.40;84.00;;;;;;4943684;28;85155;-56
2023/05/22 02:52:51;;;;;;;75.25;58.28;;;15.40;85.30;;;;;;4934737;28;90422;-59
2023/05/22 02:55:17;;;;;;;77.47;61.08;;;15.50;85.40;;;;;;4940051;28;84986;-62
2023/05/22 02:57:43;;;;;;;77.90;60.47;;;15.40;84.70;;;;;;4940462;28;85041;-58
2023/05/22 03:00:10;;;;;;;79.57;60.08;;;15.40;84.60;;;;;;4941480;28;86002;-58
2023/05/22 03:02:37;;;;;;;74.03;58.67;;;15.40;84.10;;;;;;4940181;28;90314;-60
2023/05/22 03:05:04;;;;;;;77.82;59.42;;;15.40;84.30;;;;;;4941214;28;85550;-64
2023/05/22 03:07:30;;;;;;;78.53;59.72;;;15.40;84.20;;;;;;4935891;28;85929;-65
2023/05/22 03:09:56;;;;;;;76.22;59.58;;;15.40;84.30;;;;;;4937952;28;86061;-64
2023/05/22 03:12:22;;;;;;;72.47;57.53;;;15.40;84.10;;;;;;4934070;28;85598;-58
2023/05/22 03:14:47;;;;;;;71.53;56.78;;;15.40;85.00;;;;;;4937370;28;85004;-63
2023/05/22 03:17:13;;;;;;;78.47;58.80;;;15.40;84.00;;;;;;4934395;28;85105;-55
2023/05/22 03:19:38;;;;;;;77.18;59.58;;;15.40;84.40;;;;;;4931781;28;86769;-63
2023/05/22 03:22:05;;;;;;;76.03;58.85;;;15.30;84.00;;;;;;4933351;28;90086;-56
2023/05/22 03:24:31;;;;;;;78.63;60.60;;;15.30;84.60;;;;;;4936871;28;86335;-61
2023/05/22 03:26:59;;;;;;;73.07;56.47;;;15.30;84.40;;;;;;4937885;28;86027;-60
2023/05/22 03:29:25;;;;;;;75.47;59.10;;;15.30;84.00;;;;;;4939839;28;86779;-64
2023/05/22 03:31:53;;;;;;;69.82;56.28;;;15.30;84.00;;;;;;4938774;28;84718;-63
2023/05/22 03:34:18;;;;;;;73.07;57.03;;;15.30;85.10;;;;;;4940206;28;86459;-64
2023/05/22 03:36:44;;;;;;;74.45;57.97;;;15.30;84.00;;;;;;4940238;28;86652;-58
2023/05/22 03:39:10;;;;;;;73.00;57.90;;;15.30;84.40;;;;;;4935614;28;85522;-64
2023/05/22 03:41:36;;;;;;;76.03;58.40;;;15.30;84.50;;;;;;4943425;28;84871;-61
2023/05/22 03:44:02;;;;;;;73.07;57.72;;;15.30;84.80;;;;;;4937722;28;89478;-59
2023/05/22 03:46:27;;;;;;;74.22;58.25;;;15.30;84.60;;;;;;4936984;28;85671;-62
2023/05/22 03:48:53;;;;;;;73.88;57.22;;;15.40;84.90;;;;;;4935523;28;86450;-63
2023/05/22 03:51:19;;;;;;;72.70;56.92;;;15.30;84.70;;;;;;4941413;28;85281;-57
2023/05/22 03:53:45;;;;;;;73.15;57.08;;;15.30;84.50;;;;;;4939184;28;86057;-62
2023/05/22 03:56:10;;;;;;;76.35;58.40;;;15.30;84.40;;;;;;4945841;28;86521;-63
2023/05/22 03:58:36;;;;;;;72.70;58.20;;;15.30;84.30;;;;;;4942238;28;85144;-63
2023/05/22 04:01:03;;;;;;;72.35;57.30;;;15.30;84.00;;;;;;4937455;28;85059;-61
2023/05/22 04:03:28;;;;;;;77.20;59.67;;;15.30;84.10;;;;;;4934388;28;86316;-57
2023/05/22 04:05:55;;;;;;;74.18;57.00;;;15.30;84.60;;;;;;4935999;28;85544;-62
2023/05/22 04:08:21;;;;;;;77.43;59.03;;;15.30;84.60;;;;;;4938521;28;85577;-57
2023/05/22 04:10:47;;;;;;;78.25;58.17;;;15.30;84.60;;;;;;4940501;28;86628;-61
2023/05/22 04:13:16;;;;;;;72.18;56.80;;;15.20;84.40;;;;;;4937971;28;91123;-53
2023/05/22 04:15:45;;;;;;;67.35;54.72;;;15.30;85.20;;;;;;4930316;28;85377;-56
2023/05/22 04:18:11;;;;;;;73.53;57.33;;;15.30;85.00;;;;;;4935386;28;86021;-61
2023/05/22 04:20:37;;;;;;;77.40;58.95;;;15.30;84.50;;;;;;4942724;28;85427;-55
2023/05/22 04:23:03;;;;;;;76.68;58.08;;;15.30;84.30;;;;;;4942740;28;85454;-63
2023/05/22 04:25:30;;;;;;;72.53;57.72;;;15.30;84.70;;;;;;4937961;28;84961;-61
2023/05/22 04:27:56;;;;;;;74.55;58.35;;;15.30;84.70;;;;;;4938295;28;86534;-63
2023/05/22 04:30:24;;;;;;;74.25;57.28;;;15.30;84.90;;;;;;4939730;28;86462;-60
2023/05/22 04:32:50;;;;;;;75.28;58.08;;;15.30;84.20;;;;;;4943096;28;84910;-56
2023/05/22 04:35:17;;;;;;;73.85;57.53;;;15.30;84.00;;;;;;4944013;28;87920;-63
2023/05/22 04:37:45;;;;;;;70.47;56.25;;;15.30;84.70;;;;;;4941114;28;85986;-57
2023/05/22 04:40:13;;;;;;;73.18;56.97;;;15.30;84.30;;;;;;4940458;28;85479;-62
2023/05/22 04:42:39;;;;;;;73.85;56.90;;;15.30;84.30;;;;;;4941688;28;85359;-63
2023/05/22 04:45:06;;;;;;;78.35;58.42;;;15.30;84.00;;;;;;4937870;28;85194;-63
2023/05/22 04:47:31;;;;;;;67.18;54.60;;;15.30;84.60;;;;;;4940359;28;85272;-56
2023/05/22 04:49:58;;;;;;;71.60;57.70;;;15.20;84.90;;;;;;4942507;28;84746;-63
2023/05/22 04:52:27;;;;;;;72.53;56.33;;;15.30;84.20;;;;;;4938768;28;87121;-61
2023/05/22 04:54:54;;;;;;;76.03;58.75;;;15.30;84.60;;;;;;4937378;28;85566;-60
2023/05/22 04:57:20;;;;;;;67.85;55.53;;;15.30;84.00;;;;;;4937210;28;85321;-63
2023/05/22 04:59:46;;;;;;;73.85;57.20;;;15.30;84.60;;;;;;4945711;28;84980;-61
2023/05/22 05:02:15;;;;;;;75.53;57.45;;;15.30;85.30;;;;;;4940867;28;86758;-59
2023/05/22 05:04:42;;;;;;;69.28;54.50;;;15.30;84.40;;;;;;4940873;28;84877;-62
2023/05/22 05:07:08;;;;;;;77.00;58.63;;;15.30;85.80;;;;;;4941700;28;86307;-64
2023/05/22 05:09:33;;;;;;;73.85;57.00;;;15.30;84.10;;;;;;4939692;28;85527;-61
2023/05/22 05:11:59;;;;;;;73.00;56.28;;;15.40;84.70;;;;;;4941722;28;85190;-55
2023/05/22 05:14:25;;;;;;;72.28;56.25;;;15.40;85.20;;;;;;4940933;28;87653;-64
2023/05/22 05:16:51;;;;;;;73.20;57.47;;;15.40;84.30;;;;;;4944480;28;85150;-64
2023/05/22 05:19:20;;;;;;;75.78;57.10;;;15.40;83.70;;;;;;4942457;28;85828;-61
2023/05/22 05:21:47;;;;;;;75.82;58.60;;;15.40;84.60;;;;;;4943287;28;86388;-56
2023/05/22 05:24:14;;;;;;;76.60;58.20;;;15.40;84.90;;;;;;4944087;28;85516;-60
2023/05/22 05:26:39;;;;;;;73.32;58.38;;;15.40;84.80;;;;;;4943992;28;84996;-60
2023/05/22 05:29:05;;;;;;;73.90;56.80;;;15.40;84.30;;;;;;4945617;28;86099;-64
2023/05/22 05:31:31;;;;;;;72.47;57.33;;;15.40;85.40;;;;;;4937619;28;90102;-64
2023/05/22 05:33:57;;;;;;;79.68;60.15;;;15.40;84.90;;;;;;4938813;28;85073;-60
2023/05/22 05:36:24;;;;;;;75.40;59.00;;;15.50;84.80;;;;;;4943070;28;85191;-62
2023/05/22 05:38:50;;;;;;;80.70;60.47;;;15.50;85.70;;;;;;4946608;28;84997;-60
2023/05/22 05:41:15;;;;;;;77.30;59.88;;;15.50;84.80;;;;;;4946039;28;86335;-62
2023/05/22 05:43:41;;;;;;;79.05;59.90;;;15.50;85.60;;;;;;4944677;28;85623;-59
2023/05/22 05:46:07;;;;;;;81.80;62.38;;;15.50;85.40;;;;;;4944665;28;86289;-58
2023/05/22 05:48:32;;;;;;;84.97;63.20;;;15.50;84.10;;;;;;4945832;28;86579;-61
2023/05/22 05:50:58;;;;;;;85.38;63.70;;;15.50;84.30;;;;;;4945422;28;85385;-63
2023/05/22 05:53:23;;;;;;;84.30;64.40;;;15.50;83.60;;;;;;4940880;28;86294;-62
2023/05/22 05:55:50;;;;;;;82.68;62.80;;;15.50;84.70;;;;;;4943937;28;85613;-53
2023/05/22 05:58:15;;;;;;;90.28;63.63;;;15.50;83.80;;;;;;4946982;28;84793;-61
2023/05/22 06:00:41;;;;;;;82.90;64.40;;;15.60;84.30;;;;;;4944555;28;88610;-59
2023/05/22 06:03:07;;;;;;;87.90;63.55;;;15.60;83.80;;;;;;4946876;28;85194;-54
2023/05/22 06:05:32;;;;;;;80.45;60.78;;;15.60;84.60;;;;;;4947382;28;85107;-60
2023/05/22 06:07:58;;;;;;;83.38;62.28;;;15.60;85.00;;;;;;4942800;28;84859;-62
2023/05/22 06:10:24;;;;;;;79.60;60.95;;;15.60;84.60;;;;;;4946505;28;85760;-63
2023/05/22 06:12:50;;;;;;;87.97;63.83;;;15.60;85.00;;;;;;4940280;28;85360;-63
2023/05/22 06:15:16;;;;;;;86.47;64.70;;;15.70;83.90;;;;;;4944535;28;85366;-63
2023/05/22 06:17:42;;;;;;;80.95;62.42;;;15.70;83.80;;;;;;4942422;28;84798;-61
2023/05/22 06:20:08;;;;;;;81.97;60.97;;;15.70;84.90;;;;;;4934889;28;88450;-45
2023/05/22 06:22:33;;;;;;;84.68;64.05;;;15.70;84.50;;;;;;4942161;28;85140;-53
2023/05/22 06:24:59;;;;;;;82.90;63.53;;;15.70;84.10;;;;;;4943576;28;85283;-50
2023/05/22 06:27:26;;;;;;;81.22;61.92;;;15.70;84.20;;;;;;4942526;28;85523;-48
2023/05/22 06:29:52;;;;;;;84.35;62.85;;;15.70;84.10;;;;;;4941050;28;85591;-48
2023/05/22 06:32:18;;;;;;;85.68;63.58;;;15.80;84.70;;;;;;4939428;28;85571;-45
2023/05/22 06:34:46;;;;;;;80.63;63.08;;;15.80;83.70;;;;;;4941928;28;90423;-48
2023/05/22 06:37:11;;;;;;;84.07;64.13;;;15.80;84.20;;;;;;4935040;28;86142;-48
2023/05/22 06:39:38;;;;;;;77.20;61.17;;;15.80;83.70;;;;;;4940946;28;86094;-47
2023/05/22 06:42:04;;;;;;;74.55;56.63;;;15.80;84.50;;;;;;4941429;28;85469;-47
2023/05/22 06:44:30;;;;;;;79.88;61.05;;;15.90;85.50;;;;;;4939117;28;85531;-45
2023/05/22 06:46:56;;;;;;;80.78;60.83;;;15.90;84.30;;;;;;4941135;28;85407;-47
2023/05/22 06:49:22;;;;;;;77.40;59.30;;;15.90;83.00;;;;;;4938207;28;85385;-48
2023/05/22 06:51:48;;;;;;;75.50;59.88;;;15.90;84.70;;;;;;4938516;28;85704;-50
2023/05/22 06:54:14;;;;;;;75.95;57.65;;;15.90;83.90;;;;;;4939044;28;86896;-45
2023/05/22 06:56:42;;;;;;;73.65;58.28;;;15.90;83.90;;;;;;4941765;28;85328;-47
2023/05/22 06:59:09;;;;;;;75.47;59.38;;;15.90;83.80;;;;;;4941456;28;85349;-48
2023/05/22 07:01:35;;;;;;;76.78;59.28;;;15.90;83.70;;;;;;4936481;28;85225;-47
2023/05/22 07:04:03;;;;;;;77.45;59.05;;;15.90;82.70;;;;;;4939756;28;85747;-48
2023/05/22 07:06:31;;;;;;;83.03;61.05;;;16.00;84.00;;;;;;4942433;28;85168;-49
2023/05/22 07:08:56;;;;;;;76.13;60.55;;;15.90;83.20;;;;;;4943204;28;85422;-49
2023/05/22 07:11:22;;;;;;;80.25;58.80;;;15.90;82.70;;;;;;4943433;28;86653;-49
2023/05/22 07:13:48;;;;;;;79.78;61.75;;;16.00;83.60;;;;;;4946753;28;85971;-47
2023/05/22 07:16:13;;;;;;;76.15;57.63;;;16.00;82.60;;;;;;4944492;28;85270;-50
2023/05/22 07:18:40;;;;;;;78.22;60.53;;;16.00;84.30;;;;;;4941860;28;85188;-46
2023/05/22 07:21:06;;;;;;;77.82;62.13;;;16.00;83.40;;;;;;4946424;28;86404;-46
2023/05/22 07:23:32;;;;;;;79.93;60.75;;;16.00;82.70;;;;;;4943358;28;85763;-48
2023/05/22 07:25:57;;;;;;;76.15;58.67;;;16.00;83.80;;;;;;4940202;28;85781;-46
2023/05/22 07:28:23;;;;;;;80.60;60.60;;;16.00;82.90;;;;;;4941689;28;85963;-64
2023/05/22 07:30:48;;;;;;;76.18;57.97;;;16.00;83.20;;;;;;4937618;28;86225;-56
2023/05/22 07:33:14;;;;;;;77.60;56.10;;;16.00;83.30;;;;;;4935984;28;86863;-62
2023/05/22 07:35:40;;;;;;;80.15;62.60;;;16.00;83.70;;;;;;4935103;28;85821;-64
2023/05/22 07:38:06;;;;;;;80.47;63.03;;;16.00;82.10;;;;;;4932121;28;85902;-66
2023/05/22 07:40:31;;;;;;;75.85;58.90;;;16.10;82.50;;;;;;4934601;28;87396;-65
2023/05/22 07:42:57;;;;;;;80.10;61.17;;;16.10;82.80;;;;;;4945383;28;85511;-65
2023/05/22 07:45:23;;;;;;;79.18;59.38;;;16.10;82.90;;;;;;4944618;28;85706;-60
2023/05/22 07:47:49;;;;;;;80.90;60.95;;;16.10;82.40;;;;;;4939323;28;86449;-61
2023/05/22 07:50:14;;;;;;;76.82;59.47;;;16.10;82.80;;;;;;4940841;28;85107;-63
2023/05/22 07:52:40;;;;;;;73.75;58.33;;;16.10;83.20;;;;;;4940530;28;86727;-62
2023/05/22 07:55:06;;;;;;;80.47;59.17;;;16.20;82.40;;;;;;4940604;28;85576;-63
2023/05/22 07:57:34;;;;;;;76.43;59.47;;;16.10;82.10;;;;;;4941548;28;85867;-59
2023/05/22 08:00:08;;;;;;;73.82;58.80;;;16.10;82.10;;;;;;4946867;28;85706;-59
2023/05/22 08:02:34;;;;;;;78.10;60.85;;;16.20;82.10;;;;;;4938626;28;85557;-63
2023/05/22 08:05:00;;;;;;;77.53;60.05;;;16.20;82.10;;;;;;4940405;28;85105;-65
2023/05/22 08:07:25;;;;;;;79.10;60.72;;;16.20;82.00;;;;;;4940893;28;85115;-64
2023/05/22 08:09:51;;;;;;;81.25;59.95;;;16.20;81.60;;;;;;4938859;28;86228;-66
2023/05/22 08:12:16;;;;;;;75.78;60.63;;;16.30;81.80;;;;;;4947001;28;85277;-67
2023/05/22 08:14:42;;;;;;;73.35;55.20;;;16.30;81.40;;;;;;4941254;28;86271;-63
2023/05/22 08:17:08;;;;;;;81.63;60.42;;;16.30;82.50;;;;;;4937299;28;86747;-66
2023/05/22 08:19:33;;;;;;;79.10;60.55;;;16.40;81.40;;;;;;4937122;28;85250;-62
2023/05/22 08:21:59;;;;;;;77.80;59.53;;;16.40;81.30;;;;;;4938732;28;85918;-64
2023/05/22 08:24:29;;;;;;;77.40;58.80;;;16.40;81.40;;;;;;4942291;28;84995;-63
2023/05/22 08:26:59;;;;;;;79.07;59.72;;;16.50;81.50;;;;;;4940129;28;85859;-66
2023/05/22 08:29:25;;;;;;;75.15;58.40;;;16.50;81.00;;;;;;4940737;28;85545;-67
2023/05/22 08:31:52;;;;;;;80.65;60.15;;;16.60;80.30;;;;;;4941981;28;85414;-65
2023/05/22 08:34:18;;;;;;;75.13;57.92;;;16.60;80.60;;;;;;4941276;28;85778;-67
2023/05/22 08:36:44;;;;;;;76.85;59.47;;;16.70;80.20;;;;;;4945726;28;85484;-57
2023/05/22 08:39:10;;;;;;;75.80;58.58;;;16.70;80.00;;;;;;4935908;28;85164;-57
2023/05/22 08:41:36;;;;;;;77.78;59.13;;;16.80;80.20;;;;;;4935856;28;88355;-60
2023/05/22 08:44:02;;;;;;;75.75;58.22;;;16.80;79.90;;;;;;4943204;28;87039;-62
2023/05/22 08:46:30;;;;;;;75.60;58.13;;;16.90;79.60;;;;;;4935343;28;85865;-61
2023/05/22 08:48:57;;;;;;;78.35;59.00;;;16.90;79.60;;;;;;4938828;28;85543;-61
2023/05/22 08:51:27;;;;;;;80.85;60.88;;;16.90;80.30;;;;;;4943263;28;85041;-60
2023/05/22 08:53:55;;;;;;;75.88;57.13;;;16.90;79.50;;;;;;4936248;28;86792;-52
2023/05/22 08:56:21;;;;;;;77.55;58.97;;;17.00;79.70;;;;;;4940910;28;85257;-64
2023/05/22 08:58:47;;;;;;;81.85;59.42;;;17.00;79.20;;;;;;4940833;28;85974;-66
2023/05/22 09:01:13;;;;;;;77.13;58.65;;;17.00;79.90;;;;;;4941522;28;84585;-64
2023/05/22 09:03:39;;;;;;;75.18;58.83;;;17.10;79.70;;;;;;4947142;28;84916;-64
2023/05/22 09:06:09;;;;;;;78.47;58.10;;;17.10;79.70;;;;;;4948448;28;85484;-65
2023/05/22 09:08:35;;;;;;;78.00;58.05;;;17.10;79.30;;;;;;4942348;28;87616;-62
2023/05/22 09:11:01;;;;;;;74.03;57.28;;;17.10;78.90;;;;;;4943298;28;85983;-67
2023/05/22 09:13:30;;;;;;;80.03;60.58;;;17.20;79.00;;;;;;4944610;28;85061;-66
2023/05/22 09:16:09;;;;;;;76.57;57.03;;;17.20;79.10;;;;;;4947540;28;85027;-65
2023/05/22 09:18:36;;;;;;;70.70;55.80;;;17.20;79.10;;;;;;4945369;28;84608;-60
2023/05/22 09:21:03;;;;;;;74.85;57.38;;;17.30;79.10;;;;;;4946103;28;85515;-64
2023/05/22 09:23:29;;;;;;;74.57;57.58;;;17.40;78.60;;;;;;4942983;28;86235;-67
2023/05/22 09:25:56;;;;;;;76.70;57.78;;;17.40;78.40;;;;;;4941689;28;86496;-60
2023/05/22 09:28:21;;;;;;;77.38;57.95;;;17.40;78.30;;;;;;4941964;28;86069;-61
2023/05/22 09:30:49;;;;;;;73.10;56.05;;;17.50;78.00;;;;;;4939511;28;84711;-65
2023/05/22 09:33:16;;;;;;;75.07;57.25;;;17.50;78.10;;;;;;4941794;28;87745;-56
2023/05/22 09:35:42;;;;;;;75.05;56.03;;;17.50;78.10;;;;;;4942667;28;87382;-62
2023/05/22 09:38:09;;;;;;;76.97;56.40;;;17.60;78.10;;;;;;4939333;28;89606;-67
2023/05/22 09:40:37;;;;;;;72.82;56.88;;;17.60;78.00;;;;;;4942447;28;87357;-63
2023/05/22 09:43:16;;;;;;;72.57;55.85;;;17.60;77.80;;;;;;4945955;28;85266;-66
2023/05/22 09:45:41;;;;;;;72.03;55.20;;;17.70;78.40;;;;;;4946240;28;85361;-65
2023/05/22 09:48:08;;;;;;;76.80;55.58;;;17.70;78.00;;;;;;4944339;28;85013;-46
2023/05/22 09:50:40;;;;;;;74.22;55.47;;;17.80;77.90;;;;;;4942914;28;85333;-47
2023/05/22 09:53:09;;;;;;;74.68;55.63;;;17.80;77.70;;;;;;4940301;28;85133;-49
2023/05/22 09:55:35;;;;;;;75.65;54.92;;;17.80;77.70;;;;;;4946036;28;88717;-46
2023/05/22 09:58:05;;;;;;;74.22;54.88;;;17.80;77.40;;;;;;4943317;28;85417;-47
2023/05/22 10:00:33;;;;;;;73.95;55.25;;;17.80;77.50;;;;;;4946373;28;85966;-46
2023/05/22 10:03:08;;;;;;;74.25;55.83;;;17.80;77.40;;;;;;4947110;28;85350;-47
2023/05/22 10:05:36;;;;;;;74.55;56.20;;;17.80;77.40;;;;;;4942570;28;85171;-49
2023/05/22 10:08:10;;;;;;;76.43;56.38;;;17.80;77.50;;;;;;4942572;28;85585;-49
2023/05/22 10:10:37;;;;;;;72.90;55.60;;;17.90;77.50;;;;;;4940051;28;85509;-49
2023/05/22 10:13:05;;;;;;;71.55;55.08;;;17.90;77.30;;;;;;4943691;28;85208;-47
2023/05/22 10:15:31;;;;;;;74.53;54.90;;;17.90;77.40;;;;;;4946387;28;86343;-48
2023/05/22 10:17:57;;;;;;;73.78;56.13;;;18.00;77.20;;;;;;4940516;28;86376;-47
2023/05/22 10:20:27;;;;;;;71.43;55.58;;;18.00;77.20;;;;;;4939662;28;85521;-51
2023/05/22 10:22:54;;;;;;;73.07;55.38;;;18.00;76.90;;;;;;4940896;28;85740;-47
2023/05/22 10:25:20;;;;;;;71.57;55.17;;;18.10;77.10;;;;;;4941944;28;85483;-50
2023/05/22 10:27:47;;;;;;;75.05;55.67;;;18.20;76.80;;;;;;4944127;28;86115;-47
2023/05/22 10:30:33;;;;;;;74.18;55.90;;;18.20;76.70;;;;;;4941362;28;85322;-45
2023/05/22 10:33:20;;;;;;;77.03;56.50;;;18.20;76.50;;;;;;4946050;28;85023;-46
2023/05/22 10:35:55;;;;;;;72.72;55.53;;;18.20;76.40;;;;;;4940282;28;85471;-49
2023/05/22 10:38:32;;;;;;;75.47;55.80;;;18.30;76.50;;;;;;4943274;28;85667;-47
2023/05/22 10:41:00;;;;;;;76.75;56.05;;;18.30;76.30;;;;;;4944824;28;85938;-49
2023/05/22 10:43:30;;;;;;;75.10;55.85;;;18.40;76.10;;;;;;4939963;28;85646;-46
2023/05/22 10:46:04;;;;;;;70.90;54.95;;;18.40;76.20;;;;;;4944523;28;85123;-53
2023/05/22 10:48:38;;;;;;;74.93;56.10;;;18.40;76.40;;;;;;4943628;28;85077;-46
2023/05/22 10:51:05;;;;;;;70.85;54.83;;;18.40;76.10;;;;;;4941901;28;85682;-46
2023/05/22 10:53:32;;;;;;;72.25;55.58;;;18.50;76.10;;;;;;4942336;28;85565;-48
2023/05/22 10:56:01;;;;;;;69.68;54.35;;;18.50;76.10;;;;;;4975045;28;85514;-51
2023/05/22 10:58:36;;;;;;;74.18;55.90;;;18.60;76.10;;;;;;4958323;28;85505;-60
2023/05/22 11:01:18;;;;;;;73.60;55.03;;;18.60;75.80;;;;;;4941043;28;84879;-53
2023/05/22 11:04:10;;;;;;;79.25;56.35;;;18.70;75.50;;;;;;4934591;28;86576;-65
2023/05/22 11:06:46;;;;;;;69.07;54.10;;;18.70;75.30;;;;;;4945529;28;84968;-61
2023/05/22 11:09:25;;;;;;;75.28;55.78;;;18.80;75.50;;;;;;4942632;28;84796;-66
2023/05/22 11:12:15;;;;;;;74.03;55.58;;;18.80;76.00;;;;;;4939826;28;85065;-55
2023/05/22 11:14:49;;;;;;;69.63;54.90;;;18.80;75.10;;;;;;4943725;28;85628;-58
2023/05/22 11:17:26;;;;;;;73.57;55.13;;;18.80;75.30;;;;;;4942471;28;85331;-61
2023/05/22 11:20:21;;;;;;;75.82;55.45;;;18.80;75.30;;;;;;4944568;28;85342;-58
2023/05/22 11:23:00;;;;;;;72.80;55.17;;;18.80;75.10;;;;;;4936859;28;85661;-66
2023/05/22 11:25:27;;;;;;;72.10;55.28;;;18.80;75.30;;;;;;4937203;28;85675;-61
2023/05/22 11:27:54;;;;;;;71.13;55.53;;;18.90;75.20;;;;;;4941225;28;84677;-62
2023/05/22 11:30:23;;;;;;;73.82;55.35;;;18.90;75.10;;;;;;4940153;28;86272;-66
2023/05/22 11:32:49;;;;;;;75.60;56.63;;;18.90;75.10;;;;;;4942955;28;85614;-61
2023/05/22 11:35:19;;;;;;;74.40;55.67;;;18.90;75.00;;;;;;4943926;28;85871;-62
2023/05/22 11:37:45;;;;;;;73.88;55.47;;;18.90;74.80;;;;;;4938557;28;86149;-64
2023/05/22 11:40:16;;;;;;;75.85;56.05;;;19.00;74.70;;;;;;4939881;28;85375;-58
2023/05/22 11:42:41;;;;;;;75.95;56.35;;;19.00;74.60;;;;;;4942978;28;85746;-61
2023/05/22 11:45:07;;;;;;;77.00;56.00;;;19.00;74.50;;;;;;4941671;28;85169;-61
2023/05/22 11:47:33;;;;;;;79.45;56.80;;;19.10;74.70;;;;;;4940405;28;84679;-65
2023/05/22 11:50:00;;;;;;;76.50;56.45;;;19.10;74.50;;;;;;4940443;28;85139;-63
2023/05/22 11:52:31;;;;;;;76.15;56.70;;;19.10;74.30;;;;;;4940672;28;85290;-57
2023/05/22 11:54:57;;;;;;;77.70;55.88;;;19.10;74.50;;;;;;4941345;28;90386;-62
2023/05/22 11:57:23;;;;;;;75.78;56.22;;;19.10;74.50;;;;;;4944288;28;85099;-61
2023/05/22 11:59:48;;;;;;;75.70;56.25;;;19.10;74.50;;;;;;4942999;28;85085;-68
2023/05/22 12:02:18;;;;;;;72.72;56.22;;;19.10;74.50;;;;;;4941457;28;86194;-63
2023/05/22 12:04:44;;;;;;;73.78;55.55;;;19.10;74.50;;;;;;4940718;28;86477;-65
2023/05/22 12:07:10;;;;;;;73.03;55.85;;;19.20;74.30;;;;;;4940716;28;86067;-66
2023/05/22 12:09:41;;;;;;;74.03;56.53;;;19.20;74.30;;;;;;4941417;28;85520;-62
2023/05/22 12:12:12;;;;;;;76.63;57.35;;;19.20;74.40;;;;;;4941726;28;85051;-60
2023/05/22 12:14:38;;;;;;;73.63;56.05;;;19.20;74.50;;;;;;4939072;28;85923;-62
2023/05/22 12:17:05;;;;;;;72.30;55.47;;;19.20;74.40;;;;;;4932778;28;85557;-65
2023/05/22 12:19:31;;;;;;;73.28;56.33;;;19.20;74.60;;;;;;4939192;28;85657;-63
2023/05/22 12:21:57;;;;;;;73.93;56.05;;;19.20;74.40;;;;;;4934266;28;91272;-63
2023/05/22 12:24:23;;;;;;;79.20;56.42;;;19.20;74.40;;;;;;4940949;28;84985;-65
2023/05/22 12:26:52;;;;;;;73.47;56.20;;;19.20;74.50;;;;;;4941290;28;85694;-68
2023/05/22 12:29:20;;;;;;;77.53;56.40;;;19.20;74.30;;;;;;4940650;28;86606;-58
2023/05/22 12:31:46;;;;;;;77.05;56.40;;;19.20;74.20;;;;;;4939444;28;85349;-59